createdAt,value
2018-07-01T00:00:10.478Z,44.19
2018-07-01T00:01:10.204Z,45.44
2018-07-01T00:02:10.166Z,45.83
2018-07-01T00:03:10.071Z,45.15
2018-07-01T00:04:10.090Z,45.34
2018-07-01T00:05:09.890Z,46.01
2018-07-01T00:06:09.894Z,45.44
2018-07-01T00:07:09.724Z,44.86
2018-07-01T00:08:09.746Z,44.76
2018-07-01T00:09:09.590Z,45.05
2018-07-01T00:10:09.612Z,44.76
2018-07-01T00:11:09.407Z,44.86
2018-07-01T00:12:09.427Z,45.34
2018-07-01T00:13:09.286Z,44.67
2018-07-01T00:14:09.235Z,44.76
2018-07-01T00:15:09.106Z,44.86
2018-07-01T00:16:09.134Z,44.86
2018-07-01T00:17:08.953Z,44.67
2018-07-01T00:18:08.986Z,44.86
2018-07-01T00:19:08.792Z,44.74
2018-07-01T00:20:08.754Z,45.34
2018-07-01T00:21:08.634Z,45.05
2018-07-01T00:22:08.685Z,45.73
2018-07-01T00:23:08.507Z,45.73
2018-07-01T00:24:08.472Z,45.53
2018-07-01T00:25:08.340Z,45.73
2018-07-01T00:26:08.284Z,45.34
2018-07-01T00:27:08.174Z,45.34
2018-07-01T00:29:50.214Z,45.51
2018-07-01T00:30:50.219Z,45.61
2018-07-01T00:31:50.028Z,45.32
2018-07-01T00:32:49.998Z,45.61
2018-07-01T00:33:49.872Z,45.03
2018-07-01T00:34:49.918Z,45.42
2018-07-01T00:35:49.730Z,45.70
2018-07-01T00:38:31.684Z,45.80
2018-07-01T00:39:31.749Z,45.70
2018-07-01T00:40:31.524Z,45.61
2018-07-01T00:41:31.522Z,45.61
2018-07-01T00:42:31.376Z,45.70
2018-07-01T00:43:31.332Z,45.70
2018-07-01T00:44:31.249Z,45.70
2018-07-01T00:45:31.242Z,45.70
2018-07-01T00:46:31.057Z,45.80
2018-07-01T00:47:31.070Z,45.70
2018-07-01T00:48:30.899Z,45.51
2018-07-01T00:49:30.860Z,45.61
2018-07-01T00:50:30.772Z,46.38
2018-07-01T00:51:30.770Z,45.80
2018-07-01T00:52:30.616Z,45.80
2018-07-01T00:53:30.589Z,46.67
2018-07-01T00:54:30.447Z,45.90
2018-07-01T00:55:30.430Z,46.47
2018-07-01T00:56:30.274Z,46.28
2018-07-01T00:57:30.308Z,46.38
2018-07-01T00:58:30.115Z,46.47
2018-07-01T00:59:30.107Z,45.90
2018-07-01T01:00:29.987Z,46.86
2018-07-01T01:01:30.013Z,46.67
2018-07-01T01:02:29.816Z,46.64
2018-07-01T01:03:29.823Z,46.38
2018-07-01T01:04:29.652Z,46.06
2018-07-01T01:05:29.673Z,46.06
2018-07-01T01:06:29.518Z,46.28
2018-07-01T01:09:11.699Z,46.74
2018-07-01T01:10:11.638Z,46.38
2018-07-01T01:11:11.568Z,46.74
2018-07-01T01:12:11.572Z,46.64
2018-07-01T01:13:11.388Z,46.57
2018-07-01T01:14:11.363Z,47.41
2018-07-01T01:15:11.233Z,47.13
2018-07-01T01:16:11.211Z,46.57
2018-07-01T01:17:11.122Z,46.74
2018-07-01T01:18:11.084Z,47.03
2018-07-01T01:19:10.909Z,46.84
2018-07-01T01:20:10.907Z,46.55
2018-07-01T01:21:10.761Z,47.31
2018-07-01T01:37:33.572Z,48.08
2018-07-01T01:38:33.438Z,48.28
2018-07-01T01:39:33.454Z,47.41
2018-07-01T01:40:33.244Z,47.89
2018-07-01T01:41:33.251Z,47.89
2018-07-01T01:42:33.091Z,47.97
2018-07-01T01:43:33.098Z,47.68
2018-07-01T01:44:32.952Z,47.87
2018-07-01T01:45:32.968Z,47.77
2018-07-01T01:46:32.786Z,48.25
2018-07-01T01:47:32.779Z,47.97
2018-07-01T01:48:32.648Z,48.28
2018-07-01T01:49:32.583Z,48.28
2018-07-01T01:50:32.468Z,48.28
2018-07-01T01:51:32.503Z,48.18
2018-07-01T01:52:32.311Z,48.28
2018-07-01T01:53:32.331Z,47.99
2018-07-01T01:54:32.154Z,48.16
2018-07-01T01:55:32.116Z,48.25
2018-07-01T01:56:31.999Z,48.74
2018-07-01T01:57:32.025Z,48.47
2018-07-01T01:58:31.919Z,48.28
2018-07-01T01:59:31.881Z,48.64
2018-07-01T02:00:31.676Z,48.64
2018-07-01T02:01:31.651Z,48.54
2018-07-01T02:02:31.547Z,48.35
2018-07-01T02:03:31.556Z,48.93
2018-07-01T02:04:31.401Z,49.60
2018-07-01T02:05:31.365Z,48.93
2018-07-01T02:06:31.210Z,49.12
2018-07-01T02:07:31.180Z,49.60
2018-07-01T02:08:31.051Z,49.51
2018-07-01T02:09:32.039Z,49.41
2018-07-01T02:10:30.903Z,49.51
2018-07-01T02:11:30.893Z,48.64
2018-07-01T02:12:30.736Z,48.45
2018-07-01T02:13:30.706Z,48.64
2018-07-01T02:14:30.582Z,48.45
2018-07-01T02:15:30.691Z,49.41
2018-07-01T02:16:30.422Z,49.02
2018-07-01T02:17:30.420Z,49.22
2018-07-01T02:18:30.264Z,49.60
2018-07-01T02:19:30.232Z,49.51
2018-07-01T02:20:30.124Z,49.51
2018-07-01T02:21:30.150Z,49.79
2018-07-01T02:22:29.975Z,49.69
2018-07-01T02:23:29.945Z,49.41
2018-07-01T02:24:29.831Z,49.69
2018-07-01T02:25:29.792Z,50.18
2018-07-01T02:26:29.664Z,50.08
2018-07-01T02:27:29.667Z,49.99
2018-07-01T02:28:29.481Z,49.41
2018-07-01T02:29:29.466Z,50.05
2018-07-01T02:30:29.360Z,50.56
2018-07-01T02:31:29.281Z,49.67
2018-07-01T02:32:29.169Z,50.25
2018-07-01T02:33:29.194Z,50.54
2018-07-01T02:34:29.011Z,50.44
2018-07-01T02:35:29.036Z,50.34
2018-07-01T02:36:28.857Z,50.73
2018-07-01T02:37:28.809Z,50.54
2018-07-01T02:38:28.732Z,50.15
2018-07-01T02:39:28.714Z,50.54
2018-07-01T02:40:28.575Z,50.44
2018-07-01T02:41:28.529Z,50.44
2018-07-01T02:42:28.385Z,50.34
2018-07-01T02:43:28.464Z,50.34
2018-07-01T02:44:28.222Z,50.34
2018-07-01T02:45:28.277Z,50.73
2018-07-01T02:46:28.095Z,50.15
2018-07-01T02:47:28.054Z,50.54
2018-07-01T02:48:27.913Z,50.82
2018-07-01T02:49:27.862Z,50.82
2018-07-01T02:50:27.756Z,50.82
2018-07-01T02:51:27.798Z,50.63
2018-07-01T02:52:27.598Z,51.31
2018-07-01T02:53:27.605Z,51.50
2018-07-01T02:54:27.448Z,51.02
2018-07-01T02:55:27.392Z,51.31
2018-07-01T02:56:27.309Z,51.40
2018-07-01T02:57:27.305Z,51.21
2018-07-01T02:58:27.120Z,51.59
2018-07-01T02:59:27.153Z,51.50
2018-07-01T03:00:26.969Z,51.50
2018-07-01T03:01:26.945Z,51.69
2018-07-01T03:02:26.840Z,51.50
2018-07-01T03:03:26.838Z,51.79
2018-07-01T03:04:26.665Z,51.88
2018-07-01T03:05:26.636Z,51.79
2018-07-01T03:06:26.490Z,52.17
2018-07-01T03:07:26.488Z,52.08
2018-07-01T03:08:26.340Z,52.08
2018-07-01T03:11:08.232Z,51.88
2018-07-01T03:13:50.250Z,52.08
2018-07-01T03:14:50.258Z,51.79
2018-07-01T03:15:50.076Z,51.88
2018-07-01T03:16:50.073Z,52.17
2018-07-01T03:17:49.954Z,52.08
2018-07-01T03:18:49.864Z,51.88
2018-07-01T03:19:49.758Z,52.14
2018-07-01T03:20:49.785Z,52.14
2018-07-01T03:21:49.606Z,52.05
2018-07-01T03:22:49.631Z,52.53
2018-07-01T03:23:49.444Z,51.95
2018-07-01T03:24:49.501Z,52.81
2018-07-01T03:25:49.298Z,52.81
2018-07-01T03:26:49.316Z,52.91
2018-07-01T03:27:49.179Z,52.91
2018-07-01T03:28:51.112Z,52.43
2018-07-01T03:29:48.977Z,52.53
2018-07-01T03:30:48.928Z,52.81
2018-07-01T03:31:48.816Z,53.01
2018-07-01T03:34:30.780Z,53.30
2018-07-01T03:35:30.729Z,52.72
2018-07-01T03:36:30.577Z,52.34
2018-07-01T03:39:12.759Z,53.30
2018-07-01T03:40:12.744Z,53.68
2018-07-01T03:41:12.578Z,53.68
2018-07-01T03:42:12.552Z,53.87
2018-07-01T03:43:12.431Z,53.87
2018-07-01T03:44:12.497Z,53.58
2018-07-01T03:45:12.299Z,53.87
2018-07-01T03:46:12.270Z,53.87
2018-07-01T03:47:12.111Z,53.87
2018-07-01T03:49:36.741Z,53.58
2018-07-01T03:50:36.805Z,53.78
2018-07-01T03:51:36.579Z,53.78
2018-07-01T03:54:18.768Z,53.39
2018-07-01T03:55:18.841Z,54.25
2018-07-01T03:57:43.253Z,53.68
2018-07-01T03:58:43.273Z,54.25
2018-07-01T03:59:43.106Z,54.83
2018-07-01T04:00:43.118Z,55.60
2018-07-01T04:01:42.942Z,55.51
2018-07-01T04:04:08.244Z,55.60
2018-07-01T04:05:08.193Z,56.18
2018-07-01T04:06:08.097Z,56.46
2018-07-01T04:07:08.106Z,55.99
2018-07-01T04:08:07.925Z,55.60
2018-07-01T04:10:49.779Z,54.16
2018-07-01T04:11:49.721Z,53.68
2018-07-01T04:12:49.588Z,54.35
2018-07-01T04:17:04.838Z,55.51
2018-07-01T04:18:02.670Z,55.32
2018-07-01T04:19:03.077Z,55.60
2018-07-01T04:20:02.509Z,55.60
2018-07-01T04:21:02.469Z,55.22
2018-07-01T04:22:02.386Z,55.32
2018-07-01T04:23:02.383Z,55.60
2018-07-01T04:24:02.201Z,55.41
2018-07-01T04:25:02.183Z,55.51
2018-07-01T04:26:02.041Z,54.55
2018-07-01T04:27:02.029Z,55.12
2018-07-01T04:28:01.902Z,55.60
2018-07-01T04:29:01.905Z,55.12
2018-07-01T04:30:01.730Z,54.25
2018-07-01T04:31:01.773Z,54.45
2018-07-01T04:32:01.608Z,54.67
2018-07-01T04:33:01.519Z,55.12
2018-07-01T04:34:01.416Z,55.32
2018-07-01T04:35:01.427Z,55.41
2018-07-01T04:36:01.250Z,55.34
2018-07-01T04:37:01.268Z,54.77
2018-07-01T04:38:01.096Z,55.32
2018-07-01T04:39:01.050Z,55.63
2018-07-01T04:40:00.931Z,55.63
2018-07-01T04:41:00.955Z,54.28
2018-07-01T04:42:00.806Z,54.77
2018-07-01T04:43:00.808Z,55.02
2018-07-01T04:44:00.653Z,55.24
2018-07-01T04:45:00.571Z,54.77
2018-07-01T04:46:00.463Z,55.15
2018-07-01T04:47:00.485Z,54.38
2018-07-01T04:48:00.358Z,54.77
2018-07-01T04:49:00.296Z,54.28
2018-07-01T04:50:00.157Z,54.38
2018-07-01T04:51:00.107Z,54.57
2018-07-01T04:52:00.002Z,54.28
2018-07-01T04:53:00.017Z,54.38
2018-07-01T04:53:59.860Z,54.38
2018-07-01T04:54:59.839Z,54.28
2018-07-01T04:55:59.681Z,54.47
2018-07-01T04:56:59.631Z,54.19
2018-07-01T04:57:59.546Z,54.47
2018-07-01T04:58:59.543Z,54.38
2018-07-01T04:59:59.394Z,54.67
2018-07-01T05:00:59.345Z,54.38
2018-07-01T05:01:59.219Z,54.69
2018-07-01T05:02:59.158Z,54.28
2018-07-01T05:03:59.070Z,53.83
2018-07-01T05:04:59.115Z,53.83
2018-07-01T05:05:58.892Z,53.83
2018-07-01T05:06:58.875Z,54.89
2018-07-01T05:07:58.746Z,54.22
2018-07-01T05:08:58.683Z,54.22
2018-07-01T05:09:58.607Z,53.74
2018-07-01T05:10:58.595Z,53.83
2018-07-01T05:11:58.429Z,54.79
2018-07-01T05:12:58.402Z,54.41
2018-07-01T05:13:58.298Z,53.83
2018-07-01T05:14:58.212Z,53.64
2018-07-01T05:15:58.106Z,54.50
2018-07-01T05:16:58.124Z,53.74
2018-07-01T05:17:57.967Z,53.83
2018-07-01T05:18:57.972Z,53.54
2018-07-01T05:19:57.804Z,54.02
2018-07-01T05:22:39.764Z,53.35
2018-07-01T05:23:39.737Z,53.28
2018-07-01T05:24:39.646Z,54.05
2018-07-01T05:25:39.576Z,53.96
2018-07-01T05:26:39.451Z,54.43
2018-07-01T05:27:39.542Z,53.19
2018-07-01T05:28:39.304Z,53.57
2018-07-01T05:29:39.281Z,52.99
2018-07-01T05:30:39.159Z,52.70
2018-07-01T05:31:39.177Z,53.38
2018-07-01T05:32:38.981Z,53.76
2018-07-01T05:33:38.991Z,53.19
2018-07-01T05:34:38.822Z,52.89
2018-07-01T05:35:38.938Z,53.09
2018-07-01T05:36:38.678Z,52.99
2018-07-01T05:37:38.704Z,52.89
2018-07-01T05:38:38.552Z,52.51
2018-07-01T05:39:38.514Z,52.99
2018-07-01T05:40:38.378Z,52.99
2018-07-01T05:41:38.413Z,52.99
2018-07-01T05:42:38.202Z,53.19
2018-07-01T05:43:38.244Z,52.83
2018-07-01T05:44:38.050Z,53.02
2018-07-01T05:47:20.301Z,52.63
2018-07-01T05:48:20.240Z,52.92
2018-07-01T05:49:20.174Z,52.25
2018-07-01T05:50:22.104Z,52.44
2018-07-01T05:51:20.050Z,52.15
2018-07-01T05:52:20.001Z,52.83
2018-07-01T05:53:19.798Z,53.31
2018-07-01T05:54:19.765Z,53.02
2018-07-01T05:55:19.643Z,53.23
2018-07-01T05:56:19.694Z,53.43
2018-07-01T05:57:19.508Z,53.21
2018-07-01T05:58:19.491Z,52.27
2018-07-01T05:59:19.384Z,52.95
2018-07-01T06:00:19.305Z,53.05
2018-07-01T06:01:19.168Z,51.41
2018-07-01T06:02:19.247Z,51.70
2018-07-01T06:03:19.019Z,51.60
2018-07-01T06:04:19.035Z,51.60
2018-07-01T06:05:18.866Z,51.41
2018-07-01T06:06:18.822Z,51.21
2018-07-01T06:07:18.733Z,50.45
2018-07-01T06:08:18.741Z,50.25
2018-07-01T06:09:18.539Z,49.96
2018-07-01T06:12:00.777Z,49.77
2018-07-01T06:13:00.811Z,50.15
2018-07-01T06:14:00.673Z,49.68
2018-07-01T06:15:00.665Z,49.58
2018-07-01T06:16:00.500Z,50.09
2018-07-01T06:17:00.474Z,50.09
2018-07-01T06:18:00.429Z,49.96
2018-07-01T06:19:00.283Z,49.79
2018-07-01T06:20:00.169Z,49.70
2018-07-01T06:21:00.198Z,50.27
2018-07-01T06:21:59.995Z,49.51
2018-07-01T06:22:59.994Z,49.89
2018-07-01T06:23:59.860Z,49.89
2018-07-01T06:24:59.809Z,49.41
2018-07-01T06:25:59.707Z,49.22
2018-07-01T06:26:59.721Z,49.02
2018-07-01T06:27:59.544Z,48.66
2018-07-01T06:28:59.551Z,48.66
2018-07-01T06:29:59.372Z,48.57
2018-07-01T06:32:41.314Z,48.57
2018-07-01T06:33:41.490Z,48.40
2018-07-01T06:34:41.129Z,47.75
2018-07-01T06:35:41.139Z,46.54
2018-07-01T06:36:40.970Z,44.65
2018-07-01T06:37:40.943Z,42.93
2018-07-01T06:38:40.830Z,41.97
2018-07-01T06:39:40.804Z,42.72
2018-07-01T06:40:40.660Z,42.45
2018-07-01T06:41:40.667Z,41.89
2018-07-01T06:42:40.518Z,41.52
2018-07-01T06:43:40.476Z,41.35
2018-07-01T06:44:40.368Z,40.75
2018-07-01T06:45:40.385Z,41.21
2018-07-01T06:46:40.250Z,41.91
2018-07-01T06:47:40.190Z,40.67
2018-07-01T06:48:40.062Z,40.40
2018-07-01T06:49:40.037Z,40.31
2018-07-01T06:50:39.900Z,40.21
2018-07-01T06:51:39.915Z,39.61
2018-07-01T06:52:39.755Z,40.53
2018-07-01T06:53:39.722Z,41.14
2018-07-01T06:54:39.628Z,40.26
2018-07-01T06:55:39.686Z,40.75
2018-07-01T06:56:39.465Z,40.25
2018-07-01T06:57:39.447Z,40.25
2018-07-01T06:58:39.308Z,40.42
2018-07-01T06:59:39.245Z,40.73
2018-07-01T07:00:39.176Z,40.17
2018-07-01T07:01:39.099Z,39.95
2018-07-01T07:02:39.030Z,40.17
2018-07-01T07:03:38.976Z,39.76
2018-07-01T07:04:38.882Z,40.32
2018-07-01T07:05:38.921Z,41.58
2018-07-01T07:06:38.722Z,41.11
2018-07-01T07:07:38.687Z,40.92
2018-07-01T07:08:38.576Z,40.07
2018-07-01T07:09:38.607Z,40.98
2018-07-01T07:10:38.443Z,41.31
2018-07-01T07:11:38.436Z,40.42
2018-07-01T07:12:38.342Z,40.52
2018-07-01T07:13:38.332Z,40.69
2018-07-01T07:14:38.125Z,41.21
2018-07-01T07:15:38.267Z,40.34
2018-07-01T07:16:37.990Z,40.34
2018-07-01T07:17:37.939Z,40.32
2018-07-01T07:18:37.879Z,40.52
2018-07-01T07:19:37.864Z,40.44
2018-07-01T07:20:37.688Z,41.00
2018-07-01T07:21:37.692Z,40.44
2018-07-01T07:22:37.542Z,40.26
2018-07-01T07:23:37.561Z,39.53
2018-07-01T07:24:37.402Z,38.66
2018-07-01T07:25:37.479Z,38.17
2018-07-01T07:26:37.270Z,38.07
2018-07-01T07:27:37.286Z,38.93
2018-07-01T07:28:37.176Z,38.64
2018-07-01T07:29:37.097Z,39.29
2018-07-01T07:30:36.970Z,39.01
2018-07-01T07:31:37.043Z,38.66
2018-07-01T07:32:36.806Z,39.03
2018-07-01T07:33:36.806Z,38.19
2018-07-01T07:34:36.668Z,37.43
2018-07-01T07:35:36.619Z,37.35
2018-07-01T07:36:36.539Z,37.55
2018-07-01T07:37:36.534Z,37.41
2018-07-01T07:38:36.379Z,38.56
2018-07-01T07:39:36.331Z,37.88
2018-07-01T07:40:36.231Z,38.00
2018-07-01T07:41:36.284Z,37.05
2018-07-01T07:42:36.092Z,37.90
2018-07-01T07:43:36.056Z,37.61
2018-07-01T07:44:35.940Z,37.61
2018-07-01T07:47:17.855Z,39.20
2018-07-01T07:48:17.869Z,39.41
2018-07-01T07:49:17.668Z,38.73
2018-07-01T07:50:17.679Z,38.25
2018-07-01T07:51:17.567Z,38.15
2018-07-01T07:52:17.593Z,39.26
2018-07-01T07:53:17.411Z,37.87
2018-07-01T07:54:17.390Z,38.54
2018-07-01T07:55:17.253Z,38.66
2018-07-01T07:56:17.202Z,37.66
2018-07-01T07:57:17.166Z,36.81
2018-07-01T07:58:17.123Z,36.11
2018-07-01T08:02:03.502Z,37.30
2018-07-01T08:03:03.367Z,37.46
2018-07-01T08:04:03.326Z,38.66
2018-07-01T08:05:03.157Z,37.77
2018-07-01T08:06:03.134Z,38.17
2018-07-01T08:07:02.967Z,37.87
2018-07-01T08:08:02.969Z,37.49
2018-07-01T08:09:02.841Z,37.16
2018-07-01T08:10:02.853Z,35.98
2018-07-01T08:11:02.703Z,36.85
2018-07-01T08:12:02.666Z,36.40
2018-07-01T08:13:02.654Z,35.72
2018-07-01T08:14:02.575Z,35.51
2018-07-01T08:15:02.397Z,35.92
2018-07-01T08:16:02.389Z,35.43
2018-07-01T08:17:02.273Z,35.71
2018-07-01T08:18:02.293Z,35.80
2018-07-01T08:19:02.135Z,36.35
2018-07-01T08:20:02.101Z,36.64
2018-07-01T08:21:01.987Z,36.77
2018-07-01T08:22:02.090Z,36.76
2018-07-01T08:23:01.836Z,36.91
2018-07-01T08:24:01.849Z,37.21
2018-07-01T08:25:01.707Z,37.24
2018-07-01T08:26:01.728Z,36.21
2018-07-01T08:27:01.575Z,35.35
2018-07-01T08:28:01.541Z,35.33
2018-07-01T08:29:01.506Z,35.32
2018-07-01T08:30:01.466Z,35.51
2018-07-01T08:31:01.283Z,36.18
2018-07-01T08:32:01.263Z,36.77
2018-07-01T08:33:01.130Z,35.63
2018-07-01T08:34:01.196Z,35.82
2018-07-01T08:35:00.987Z,35.82
2018-07-01T08:36:00.979Z,36.10
2018-07-01T08:37:00.881Z,36.76
2018-07-01T08:38:00.893Z,36.68
2018-07-01T08:39:00.722Z,36.42
2018-07-01T08:40:00.728Z,35.72
2018-07-01T08:41:00.787Z,35.74
2018-07-01T08:43:42.830Z,33.96
2018-07-01T08:44:42.848Z,33.93
2018-07-01T08:45:42.707Z,34.09
2018-07-01T08:46:42.730Z,35.48
2018-07-01T08:47:42.560Z,36.06
2018-07-01T08:48:42.630Z,36.18
2018-07-01T08:49:42.456Z,35.53
2018-07-01T08:50:42.467Z,35.14
2018-07-01T08:51:42.294Z,35.37
2018-07-01T08:52:42.317Z,34.30
2018-07-01T08:53:42.155Z,33.54
2018-07-01T08:54:42.182Z,34.08
2018-07-01T08:55:42.025Z,34.30
2018-07-01T08:56:41.976Z,33.81
2018-07-01T08:57:41.893Z,34.38
2018-07-01T08:58:41.874Z,33.75
2018-07-01T08:59:41.855Z,32.89
2018-07-01T09:00:41.729Z,32.16
2018-07-01T09:01:41.603Z,30.93
2018-07-01T09:02:41.600Z,30.05
2018-07-01T09:03:41.470Z,29.47
2018-07-01T09:04:41.576Z,29.54
2018-07-01T09:05:41.358Z,30.19
2018-07-01T09:06:41.324Z,29.82
2018-07-01T09:07:41.186Z,30.02
2018-07-01T09:08:41.292Z,29.75
2018-07-01T09:09:41.071Z,28.96
2018-07-01T09:10:41.083Z,30.06
2018-07-01T09:11:40.962Z,28.97
2018-07-01T09:12:40.954Z,29.24
2018-07-01T09:13:40.820Z,29.53
2018-07-01T09:14:40.791Z,29.88
2018-07-01T09:15:40.749Z,31.04
2018-07-01T09:16:40.721Z,30.31
2018-07-01T09:17:40.519Z,30.22
2018-07-01T09:18:40.570Z,29.25
2018-07-01T09:19:40.452Z,29.27
2018-07-01T09:20:40.382Z,29.32
2018-07-01T09:21:40.268Z,30.80
2018-07-01T09:22:40.346Z,30.11
2018-07-01T09:23:40.153Z,30.54
2018-07-01T09:24:40.119Z,31.77
2018-07-01T09:25:39.992Z,32.70
2018-07-01T09:26:40.059Z,32.91
2018-07-01T09:27:39.900Z,32.96
2018-07-01T09:28:39.821Z,32.23
2018-07-01T09:29:39.728Z,31.22
2018-07-01T09:30:39.752Z,29.49
2018-07-01T09:31:39.611Z,30.22
2018-07-01T09:32:39.570Z,27.25
2018-07-01T09:33:39.499Z,28.04
2018-07-01T09:34:39.500Z,27.05
2018-07-01T09:35:39.338Z,27.38
2018-07-01T09:36:39.364Z,27.20
2018-07-01T09:37:39.242Z,26.20
2018-07-01T09:38:39.182Z,27.33
2018-07-01T09:39:39.078Z,27.52
2018-07-01T09:40:39.095Z,27.84
2018-07-01T09:41:38.942Z,28.16
2018-07-01T09:42:38.947Z,26.59
2018-07-01T09:43:38.820Z,27.34
2018-07-01T09:44:38.819Z,27.36
2018-07-01T09:45:38.673Z,26.99
2018-07-01T09:46:38.735Z,27.25
2018-07-01T09:47:38.568Z,28.18
2018-07-01T09:48:38.532Z,28.69
2018-07-01T09:49:38.427Z,27.65
2018-07-01T09:50:38.449Z,27.38
2018-07-01T09:51:38.308Z,26.59
2018-07-01T09:52:38.272Z,26.98
2018-07-01T09:53:38.168Z,26.60
2018-07-01T09:54:38.275Z,26.49
2018-07-01T09:55:38.094Z,27.19
2018-07-01T09:56:38.137Z,26.31
2018-07-01T09:57:37.909Z,26.95
2018-07-01T09:58:37.873Z,27.86
2018-07-01T09:59:37.786Z,27.31
2018-07-01T10:00:38.140Z,26.43
2018-07-01T10:01:37.701Z,26.22
2018-07-01T10:02:37.694Z,26.22
2018-07-01T10:03:37.530Z,25.84
2018-07-01T10:04:37.513Z,25.92
2018-07-01T10:05:37.413Z,26.93
2018-07-01T10:06:37.454Z,28.75
2018-07-01T10:07:37.292Z,28.39
2018-07-01T10:08:37.328Z,28.42
2018-07-01T10:09:37.145Z,28.28
2018-07-01T10:10:37.147Z,29.27
2018-07-01T10:11:37.044Z,29.59
2018-07-01T10:12:37.199Z,27.69
2018-07-01T10:13:36.917Z,28.25
2018-07-01T10:14:37.273Z,29.50
2018-07-01T10:15:36.772Z,28.55
2018-07-01T10:18:18.921Z,28.69
2018-07-01T10:19:18.883Z,27.94
2018-07-01T10:20:18.746Z,28.34
2018-07-01T10:21:18.780Z,27.49
2018-07-01T10:22:18.620Z,26.12
2018-07-01T10:23:18.626Z,25.62
2018-07-01T10:24:18.517Z,26.56
2018-07-01T10:25:18.501Z,26.84
2018-07-01T10:26:18.377Z,27.05
2018-07-01T10:27:18.416Z,27.38
2018-07-01T10:28:18.258Z,27.90
2018-07-01T10:29:18.237Z,27.40
2018-07-01T10:30:18.113Z,25.94
2018-07-01T10:31:18.125Z,26.20
2018-07-01T10:32:17.994Z,26.56
2018-07-01T10:33:18.062Z,26.80
2018-07-01T10:34:17.860Z,28.79
2018-07-01T10:35:17.858Z,30.14
2018-07-01T10:36:17.759Z,30.04
2018-07-01T10:37:17.916Z,29.47
2018-07-01T10:38:17.610Z,29.69
2018-07-01T10:39:17.605Z,29.14
2018-07-01T10:40:17.634Z,27.41
2018-07-01T10:41:17.551Z,27.03
2018-07-01T10:42:17.530Z,26.56
2018-07-01T10:43:17.385Z,26.48
2018-07-01T10:44:17.254Z,26.49
2018-07-01T10:45:17.197Z,26.66
2018-07-01T10:46:17.099Z,26.66
2018-07-01T10:47:17.112Z,26.87
2018-07-01T10:48:16.968Z,26.48
2018-07-01T10:49:17.016Z,26.68
2018-07-01T10:50:16.877Z,27.17
2018-07-01T10:51:16.890Z,27.76
2018-07-01T10:52:16.750Z,26.97
2018-07-01T10:53:16.750Z,26.66
2018-07-01T10:54:16.591Z,26.93
2018-07-01T10:55:16.679Z,27.26
2018-07-01T10:56:16.462Z,29.29
2018-07-01T10:57:16.458Z,29.79
2018-07-01T10:58:16.352Z,29.49
2018-07-01T10:59:16.362Z,29.55
2018-07-01T11:00:16.247Z,30.54
2018-07-01T11:02:58.438Z,29.71
2018-07-01T11:03:58.405Z,28.88
2018-07-01T11:04:58.264Z,27.90
2018-07-01T11:05:58.374Z,28.38
2018-07-01T11:06:58.152Z,28.63
2018-07-01T11:07:58.138Z,29.54
2018-07-01T11:08:58.009Z,28.61
2018-07-01T11:09:58.019Z,27.33
2018-07-01T11:10:57.926Z,27.65
2018-07-01T11:11:57.931Z,26.76
2018-07-01T11:12:57.767Z,26.45
2018-07-01T11:13:57.754Z,27.34
2018-07-01T11:14:57.634Z,27.36
2018-07-01T11:15:57.682Z,26.87
2018-07-01T11:16:57.510Z,26.01
2018-07-01T11:17:57.554Z,26.11
2018-07-01T11:18:57.383Z,25.52
2018-07-01T11:19:57.367Z,26.51
2018-07-01T11:20:57.324Z,25.70
2018-07-01T11:21:57.282Z,26.89
2018-07-01T11:22:57.138Z,28.04
2018-07-01T11:23:57.185Z,27.56
2018-07-01T11:24:57.023Z,27.69
2018-07-01T11:25:58.071Z,27.13
2018-07-01T11:26:57.033Z,27.75
2018-07-01T11:27:56.910Z,26.35
2018-07-01T11:30:21.392Z,27.34
2018-07-01T11:31:21.444Z,26.68
2018-07-01T11:32:21.286Z,26.07
2018-07-01T11:33:21.322Z,26.68
2018-07-01T11:34:21.154Z,26.70
2018-07-01T11:35:21.216Z,25.00
2018-07-01T11:36:21.031Z,25.29
2018-07-01T11:37:21.071Z,26.67
2018-07-01T11:38:20.891Z,25.98
2018-07-01T11:39:20.950Z,25.68
2018-07-01T11:40:20.765Z,26.27
2018-07-01T11:41:20.854Z,25.57
2018-07-01T11:42:20.659Z,25.18
2018-07-01T11:43:20.646Z,25.56
2018-07-01T11:44:20.530Z,26.35
2018-07-01T11:45:20.552Z,25.59
2018-07-01T11:46:20.400Z,25.64
2018-07-01T11:47:20.401Z,26.15
2018-07-01T11:48:20.267Z,26.66
2018-07-01T11:49:20.316Z,26.95
2018-07-01T11:50:20.179Z,26.57
2018-07-01T11:51:20.199Z,25.39
2018-07-01T11:52:20.067Z,25.67
2018-07-01T11:53:20.039Z,25.98
2018-07-01T11:54:19.891Z,26.15
2018-07-01T11:55:19.932Z,25.96
2018-07-01T11:56:19.777Z,25.96
2018-07-01T11:57:19.754Z,25.76
2018-07-01T11:58:19.648Z,26.04
2018-07-01T11:59:19.637Z,26.43
2018-07-01T12:00:19.533Z,26.54
2018-07-01T12:01:19.920Z,27.05
2018-07-01T12:02:19.404Z,26.15
2018-07-01T12:03:19.360Z,26.04
2018-07-01T12:04:19.262Z,26.23
2018-07-01T12:05:19.303Z,26.50
2018-07-01T12:06:19.127Z,26.90
2018-07-01T12:07:19.176Z,26.61
2018-07-01T12:08:19.011Z,26.69
2018-07-01T12:09:18.972Z,26.50
2018-07-01T12:10:18.839Z,26.69
2018-07-01T12:11:18.888Z,26.30
2018-07-01T12:12:18.711Z,27.08
2018-07-01T12:13:18.780Z,27.16
2018-07-01T12:14:18.564Z,27.54
2018-07-01T12:15:18.618Z,27.72
2018-07-01T12:16:18.429Z,28.59
2018-07-01T12:17:18.419Z,28.79
2018-07-01T12:18:18.302Z,29.57
2018-07-01T12:19:18.332Z,28.30
2018-07-01T12:20:18.369Z,29.08
2018-07-01T12:21:18.172Z,29.78
2018-07-01T12:22:18.202Z,29.97
2018-07-01T12:23:18.106Z,28.89
2018-07-01T12:24:17.866Z,29.18
2018-07-01T12:25:17.852Z,29.36
2018-07-01T12:26:17.807Z,30.14
2018-07-01T12:27:17.765Z,30.33
2018-07-01T12:28:17.616Z,30.25
2018-07-01T12:29:17.621Z,30.44
2018-07-01T12:30:17.453Z,30.02
2018-07-01T12:31:17.440Z,30.22
2018-07-01T12:32:17.294Z,31.21
2018-07-01T12:33:17.343Z,31.40
2018-07-01T12:34:17.189Z,30.33
2018-07-01T12:35:17.094Z,30.05
2018-07-01T12:36:17.006Z,30.54
2018-07-01T12:37:17.059Z,30.74
2018-07-01T12:38:16.865Z,30.04
2018-07-01T12:39:16.838Z,29.65
2018-07-01T12:40:16.783Z,30.72
2018-07-01T12:41:16.743Z,30.33
2018-07-01T12:42:16.638Z,30.52
2018-07-01T12:43:16.564Z,30.82
2018-07-01T12:44:16.439Z,30.82
2018-07-01T12:45:16.499Z,30.72
2018-07-01T12:46:16.359Z,30.83
2018-07-01T12:47:16.277Z,30.93
2018-07-01T12:48:16.136Z,30.94
2018-07-01T12:49:16.185Z,30.26
2018-07-01T12:50:16.034Z,29.47
2018-07-01T12:51:15.986Z,29.38
2018-07-01T12:52:15.832Z,29.86
2018-07-01T12:53:15.900Z,30.04
2018-07-01T12:54:15.710Z,30.14
2018-07-01T12:55:15.745Z,30.04
2018-07-01T12:56:15.608Z,30.35
2018-07-01T12:57:15.503Z,30.17
2018-07-01T12:58:15.409Z,28.99
2018-07-01T12:59:15.427Z,28.89
2018-07-01T13:00:15.267Z,29.47
2018-07-01T13:01:15.261Z,29.96
2018-07-01T13:02:15.137Z,29.88
2018-07-01T13:03:15.143Z,29.88
2018-07-01T13:04:14.965Z,28.80
2018-07-01T13:05:14.949Z,28.50
2018-07-01T13:06:14.844Z,28.50
2018-07-01T13:07:14.959Z,28.39
2018-07-01T13:08:14.670Z,28.97
2018-07-01T13:09:14.684Z,29.25
2018-07-01T13:10:14.524Z,29.16
2018-07-01T13:11:14.599Z,29.75
2018-07-01T13:12:14.424Z,30.33
2018-07-01T13:13:14.408Z,30.14
2018-07-01T13:14:14.236Z,30.44
2018-07-01T13:15:14.229Z,29.75
2018-07-01T13:16:14.102Z,30.14
2018-07-01T13:17:14.172Z,29.46
2018-07-01T13:18:13.951Z,30.05
2018-07-01T13:19:13.945Z,31.13
2018-07-01T13:20:13.796Z,30.54
2018-07-01T13:21:13.863Z,29.76
2018-07-01T13:22:13.769Z,29.78
2018-07-01T13:23:13.667Z,29.57
2018-07-01T13:24:13.544Z,29.28
2018-07-01T13:25:13.651Z,29.86
2018-07-01T13:26:13.363Z,29.94
2018-07-01T13:27:13.414Z,29.36
2018-07-01T13:28:13.213Z,29.86
2018-07-01T13:30:55.457Z,31.03
2018-07-01T13:31:55.497Z,29.47
2018-07-01T13:32:55.378Z,29.86
2018-07-01T13:33:55.307Z,29.36
2018-07-01T13:34:55.158Z,29.94
2018-07-01T13:35:55.279Z,30.02
2018-07-01T13:36:55.040Z,30.04
2018-07-01T13:37:55.077Z,29.54
2018-07-01T13:38:54.857Z,30.24
2018-07-01T13:39:54.941Z,29.85
2018-07-01T13:40:54.802Z,30.04
2018-07-01T13:41:54.755Z,29.94
2018-07-01T13:42:54.688Z,29.36
2018-07-01T13:43:54.588Z,29.65
2018-07-01T13:44:54.418Z,29.36
2018-07-01T13:45:54.498Z,30.43
2018-07-01T13:46:54.284Z,29.96
2018-07-01T13:47:54.289Z,29.47
2018-07-01T13:48:54.148Z,30.07